Flight Track Log - Related Links

Times and Time Zones

All times are in EDT time to prevent confusion due to time zone crossing. See the N703RM flight status page for this flight to view local times or setup timezone preferences in your user account.

Time Position Orientation Groundspeed Altitude Reporting Facility
EDT Latitude Longitude Course Direction KTS MPH feet Rate Location/Type
Thu 02:55:02 PM 38.6667 -77.5167 231° Southwest 177 204 2,000  Level Potomac TRACON
Thu 02:56:03 PM 38.6667 -77.5667 270° West 188 216 3,400 1,432 Climbing Potomac TRACON
Thu 02:57:37 PM 38.6536 -77.6731 261° West 197 227 5,700 1,442 Climbing Washington Center
Thu 02:58:37 PM 38.6483 -77.7369 264° West 192 221 7,100 1,289 Climbing Washington Center
Thu 02:59:38 PM 38.6428 -77.8031 264° West 192 221 8,300 1,190 Climbing Washington Center
Thu 03:00:00 PM 38.3839 -77.6714 231° Southwest  Level Estimated
Thu 03:00:38 PM 38.6356 -77.8694 262° West 192 221 9,500  Level Washington Center
Thu 03:01:39 PM 38.6072 -77.9217 235° Southwest 191 220 10,800 1,261 Climbing Washington Center
Thu 03:02:37 PM 38.5769 -77.9764 235° Southwest 186 214 12,000 1,108 Climbing Washington Center
Thu 03:03:49 PM 38.5447 -78.0286 232° Southwest 192 221 13,200 1,173 Climbing Washington Center
Thu 03:04:50 PM 38.5103 -78.0883 234° Southwest 192 221 14,600 1,230 Climbing Washington Center
Thu 03:05:51 PM 38.4800 -78.1378 232° Southwest 187 215 15,700 706 Climbing Washington Center
Thu 03:06:49 PM 38.4494 -78.1925 235° Southwest 187 215 16,000 151 Climbing Washington Center
Thu 03:07:50 PM 38.4128 -78.2522 232° Southwest 200 230 16,000  Level Washington Center
Thu 03:08:50 PM 38.3781 -78.3144 235° Southwest 213 245 16,000  Level Washington Center
Thu 03:09:50 PM 38.3231 -78.3522 208° Southwest 219 252 16,000  Level Washington Center
Thu 03:10:51 PM 38.2619 -78.3764 197° South 226 260 16,000  Level Washington Center
Thu 03:11:49 PM 38.2136 -78.3956 197° South 233 268 16,000  Level Washington Center
Thu 03:12:50 PM 38.1356 -78.4269 198° South 239 275 16,000  Level Washington Center
Thu 03:13:51 PM 38.0808 -78.4514 199° South 239 275 16,000  Level Washington Center
Thu 03:14:51 PM 38.0114 -78.4778 197° South 239 275 16,000  Level Washington Center
Thu 03:15:49 PM 37.9503 -78.5069 201° Southwest 233 268 16,000  Level Washington Center
Thu 03:16:50 PM 37.8892 -78.5308 197° South 233 268 16,000  Level Washington Center
Thu 03:17:51 PM 37.8258 -78.5572 198° South 233 268 16,000  Level Washington Center
Thu 03:18:49 PM 37.7775 -78.5764 197° South 233 268 16,000  Level Washington Center
Thu 03:19:50 PM 37.6994 -78.6050 196° South 233 268 16,000  Level Washington Center
Thu 03:20:50 PM 37.6406 -78.6314 200° South 239 275 16,000  Level Washington Center
Thu 03:21:51 PM 37.5772 -78.6550 196° South 244 281 16,000  Level Washington Center
Thu 03:22:51 PM 37.5142 -78.6814 198° South 249 287 16,000  Level Washington Center
Thu 03:23:49 PM 37.4508 -78.7050 196° South 249 287 16,000  Level Washington Center
Thu 03:24:49 PM 37.3814 -78.7333 198° South 249 287 16,000  Level Washington Center
Thu 03:25:50 PM 37.3158 -78.7594 198° South 249 287 16,000  Level Washington Center
Thu 03:26:51 PM 37.2525 -78.7856 198° South 249 287 16,000  Level Washington Center
Thu 03:27:49 PM 37.1872 -78.8117 198° South 249 287 16,000  Level Washington Center
Thu 03:28:50 PM 37.1303 -78.8353 198° South 249 287 16,000  Level Washington Center
Thu 03:29:50 PM 37.0669 -78.8611 198° South 249 287 16,000  Level Washington Center
Thu 03:30:51 PM 37.0017 -78.8844 196° South 249 287 16,000 -99 Level Washington Center
Thu 03:31:51 PM 36.9364 -78.9075 196° South 249 287 15,800 -712 Descending Washington Center
Thu 03:32:49 PM 36.8614 -78.9017 176° South 254 292 14,600 -1,525 Descending Washington Center
Thu 03:33:49 PM 36.7803 -78.8931 175° South 269 310 12,800 -1,636 Descending Washington Center
Thu 03:34:50 PM 36.7056 -78.8822 173° South 274 315 11,300 -1,512 Descending Washington Center
Thu 03:35:56 PM 36.6264 -78.8761 176° South 268 308 9,600 -1,541 Descending Washington Center
Thu 03:36:39 PM 36.5742 -78.8742 178° South 267 307 8,500 -1,309 Descending Washington Center
Thu 03:36:51 PM 36.5639 -78.8711 167° South 274 315 8,400 -1,781 Descending Washington Center
Thu 03:37:43 PM 36.4911 -78.8603 173° South 260 299 6,600 -1,759 Descending Washington Center
Thu 03:37:49 PM 36.4933 -78.8628 318° Northwest 274 315 6,700 -537 Climbing Washington Center
Thu 03:38:50 PM 36.4225 -78.8547 175° South 269 310 6,000 -347 Descending Washington Center
Thu 03:39:50 PM 36.3478 -78.8439 173° South 251 289 6,000 -400 Level Washington Center
Thu 03:40:50 PM 36.2917 -78.8364 174° South 244 281 5,200 -952 Descending Washington Center
Thu 03:40:53 PM 36.2769 -78.8358 178° South 240 276 5,000 -1,082 Descending Washington Center
Thu 03:41:51 PM 36.2169 -78.8128 163° South 249 287 4,100 -885 Descending Washington Center
Thu 03:41:54 PM 36.2131 -78.8100 150° Southeast 262 302 4,100  Level Washington Center
Thu 03:42:43 PM 36.1744 -78.7647 137° Southeast 251 289 4,100  Level Washington Center
Thu 03:42:52 PM 36.1686 -78.7567 132° Southeast 241 277 4,100 -91 Level Washington Center
Thu 03:43:49 PM 36.1239 -78.7061 138° Southeast 241 277 4,000 -51 Descending Washington Center
Thu 03:44:49 PM 36.0753 -78.6503 137° Southeast 246 283 4,000  Level Washington Center
Thu 03:44:55 PM 36.0692 -78.6422 133° Southeast 227 261 4,000 -885 Level Washington Center
Thu 03:45:50 PM 36.0306 -78.6047 142° Southeast 228 262 3,100 -984 Descending Washington Center
Thu 03:45:56 PM 36.0222 -78.6069 192° South 184 212 3,000 -358 Descending Washington Center
Thu 03:46:57 PM 35.9878 -78.6494 225° Southwest 161 185 2,700 -234 Descending Washington Center
Thu 03:48:04 PM 35.9492 -78.6914 221° Southwest 161 185 2,500 -397 Descending Washington Center
Thu 03:48:58 PM 35.9231 -78.7289 229° Southwest 159 183 1,900 -750 Descending Washington Center
Thu 03:50:04 PM 35.8931 -78.7586 219° Southwest 125 144 1,000 -818 Descending Washington Center
Thu 03:52:00 PM 35.8667 -78.7833 225° Southwest  Level FlightAware Approximate
Thu 03:59:00 PM 35.8776 -78.7875 225° Southwest  Level Estimated

Login

Don't have an account? Register now (free) for customized features, flight alerts, and more!